Virgilina, VA (24598)

12:44 AM EST del 27 Gennaio 2015 (GMT -0500)
Scottsburg, VA | Change Station
CLOSE
Current Station
Stazione meteo personale
Location: Scottsburg, VA
Altitudine: 348 ft
Stazioni meteo nelle vicinanze

Alt. 348 ft 36.70 °N, 78.66 °W | Updated 9 minutes ago

Coperto
Coperto
37.0 °F
Sembra 37 °F
N
3.0
Vento Variabile Vento da Ovest
Gusts 6.0 mph

Oggi
Massima -- | Minima -- °F
--% Possibilità di precip.
Ieri
Massima -- | Minima -- °F
Precip. -- in
7:20 AM 5:35 PM
Luna crescente, 50% visible
Pressione 29.69 in
Visibilità 10.0 miglia
Nuvole Molto nuvoloso 800 ft
Coperto 1100 ft
Raffreddamento del vento 37 °F
Punto di rugiada 36 °F
Umidità 94%
Piovosità 0.02 in
Spessore del manto nevoso Non disponibile.
Raggi UV 0 fuori da 12
Polline .40 fuori da 12
Qualità dell'aria Non disponibile.
Flu Activity Non disponibile.
METAR KHNZ 270535Z AUTO 32005KT 10SM -DZ BKN008 OVC011 02/01 A2969 RMK AO2 T00200007

More Conditions Fewer Conditions

Pressione 29.69 in
Visibilità 10.0 miglia
Nuvole Molto nuvoloso 800 ft
Coperto 1100 ft
Raffreddamento del vento 37 °F
Punto di rugiada 36 °F
Umidità 94%
Piovosità 0.02 in
Spessore del manto nevoso Non disponibile.
Raggi UV 0 fuori da 12
Polline .40 fuori da 12
Qualità dell'aria Non disponibile.
Flu Activity Non disponibile.
METAR KHNZ 270535Z AUTO 32005KT 10SM -DZ BKN008 OVC011 02/01 A2969 RMK AO2 T00200007

More Conditions Fewer Conditions

10-Day Weather Forecast

Almanac

Astronomia

Jan. 27, 2015 Alba Tramonto
Ora attuale
Crepuscolo civile
Crepuscolo nautico
Crepuscolo astronomico
Luna
Estensione della luce visibile
Lunghezza del giorno
Tomorrow will be .
, % of the Moon is Illuminated

Gli estremi di oggi

State Highs State Lows

Community

WunderPhotos

Upload Photos

1,790,536 foto caricate!

WunderBlogs® & News

Nearby

Qualità dell'aria

  Qualità dell'aria Indice AQ Inquinante
Not available.

Profondità neve

Stazione Profondità Altitudine

Attività sismica

Città  Distanza Mag. Data & Ora
Minimo Magnitudo Mostrato è 2.5.

Temperature delle acque costiere

Località Temperatura

Stazioni meteo nelle vicinanze